Time;durP1;ratioP1;P1;durP2;ratioP2;P2;SDS_P1;SDS_P2;PMS_P1;PMS_P2;Temp;Humidity;BMP_temperature;BMP_pressure;BME280_temperature;BME280_humidity;BME280_pressure;Samples;Min_cycle;Max_cycle;Signal;HPM_P1;HPM_P2
2020/12/05 00:02:13;;;;;;;12.38;5.72;;;;;;;-0.54;99.69;98311.13;5051495;28;20049;-57
2020/12/05 00:04:41;;;;;;;15.68;7.00;;;;;;;-0.47;99.86;98319.22;5053755;28;20048;-57
2020/12/05 00:07:08;;;;;;;17.13;6.40;;;;;;;-0.40;99.81;98310.59;5057785;28;20048;-56
2020/12/05 00:09:35;;;;;;;14.73;6.75;;;;;;;-0.25;99.99;98317.88;5059164;28;20467;-57
2020/12/05 00:12:02;;;;;;;12.68;6.20;;;;;;;-0.03;100.00;98316.50;5053379;28;20095;-56
2020/12/05 00:14:29;;;;;;;14.50;6.28;;;;;;;0.03;100.00;98325.56;5055134;28;20371;-57
2020/12/05 00:16:57;;;;;;;11.85;4.47;;;;;;;0.06;100.00;98318.22;5053478;28;20052;-55
2020/12/05 00:19:24;;;;;;;13.13;6.00;;;;;;;0.08;100.00;98323.31;5051732;28;20056;-56
2020/12/05 00:21:52;;;;;;;13.43;6.75;;;;;;;0.08;100.00;98318.06;5054996;28;20052;-56
2020/12/05 00:24:19;;;;;;;14.05;7.20;;;;;;;0.22;100.00;98311.41;5058181;28;20045;-56
2020/12/05 00:26:48;;;;;;;15.80;6.57;;;;;;;0.36;100.00;98316.03;5054448;28;20044;-56
2020/12/05 00:29:15;;;;;;;10.75;6.30;;;;;;;0.43;99.93;98316.22;5052572;28;20087;-56
2020/12/05 00:31:42;;;;;;;14.77;6.93;;;;;;;0.55;99.90;98319.38;5057390;28;20049;-56
2020/12/05 00:34:10;;;;;;;11.75;6.38;;;;;;;0.63;99.51;98328.09;5049342;28;20045;-56
2020/12/05 00:36:37;;;;;;;10.95;6.13;;;;;;;0.58;99.44;98333.03;5051514;28;20044;-56
2020/12/05 00:39:05;;;;;;;8.98;5.03;;;;;;;0.73;99.25;98345.53;5056419;28;20336;-56
2020/12/05 00:41:32;;;;;;;11.57;5.22;;;;;;;0.76;99.03;98342.59;5052699;28;20399;-56
2020/12/05 00:43:59;;;;;;;8.00;4.60;;;;;;;0.75;98.67;98351.44;5052059;28;20459;-56
2020/12/05 00:46:26;;;;;;;10.18;4.40;;;;;;;0.78;98.57;98357.22;5053516;28;20360;-55
2020/12/05 00:48:53;;;;;;;12.43;4.22;;;;;;;0.78;98.72;98357.22;5053759;28;20142;-55
2020/12/05 00:51:20;;;;;;;11.50;4.00;;;;;;;0.81;98.31;98361.34;5050436;28;20098;-56
2020/12/05 00:53:47;;;;;;;9.98;4.63;;;;;;;0.79;98.41;98363.28;5057598;28;20045;-54
2020/12/05 00:56:19;;;;;;;8.57;3.45;;;;;;;0.81;98.01;98369.22;5062763;28;20043;-56
2020/12/05 00:58:46;;;;;;;7.10;3.20;;;;;;;0.79;98.03;98368.53;5059976;28;20040;-56
2020/12/05 01:01:13;;;;;;;10.35;4.03;;;;;;;0.79;98.29;98386.94;5061099;28;20044;-56
2020/12/05 01:03:40;;;;;;;10.35;4.15;;;;;;;0.85;98.19;98387.13;5054663;28;20045;-55
2020/12/05 01:06:10;;;;;;;8.00;3.78;;;;;;;0.91;97.78;98388.28;5058484;28;20029;-54
2020/12/05 01:08:40;;;;;;;6.28;3.30;;;;;;;0.91;98.22;98398.78;5058403;28;20044;-55
2020/12/05 01:11:13;;;;;;;5.78;3.25;;;;;;;0.97;97.93;98397.34;5061727;28;20051;-55
2020/12/05 01:13:42;;;;;;;8.30;4.40;;;;;;;1.03;98.15;98399.31;5059341;28;20071;-56
2020/12/05 01:16:12;;;;;;;7.97;3.53;;;;;;;1.14;97.96;98398.19;5056126;28;20056;-55
2020/12/05 01:18:40;;;;;;;8.68;3.90;;;;;;;1.18;97.72;98394.25;5058691;28;20052;-54
2020/12/05 01:21:08;;;;;;;9.48;3.63;;;;;;;1.24;97.50;98390.16;5053769;28;20041;-56
2020/12/05 01:23:35;;;;;;;7.97;3.85;;;;;;;1.23;97.99;98399.03;5057826;28;20086;-56
2020/12/05 01:26:03;;;;;;;8.23;3.15;;;;;;;1.27;97.40;98406.41;5056440;28;20075;-56
2020/12/05 01:28:30;;;;;;;10.43;3.88;;;;;;;1.37;97.88;98408.91;5059218;28;20060;-56
2020/12/05 01:30:58;;;;;;;8.10;4.18;;;;;;;1.42;97.45;98403.97;5042315;28;20056;-55
2020/12/05 01:33:25;;;;;;;6.68;3.28;;;;;;;1.58;97.32;98411.06;5054033;28;20049;-55
2020/12/05 01:35:52;;;;;;;5.85;3.33;;;;;;;1.61;96.83;98415.97;5059716;28;20505;-55
2020/12/05 01:38:19;;;;;;;8.80;4.45;;;;;;;1.62;97.25;98416.81;5056239;28;20049;-55
2020/12/05 01:40:50;;;;;;;6.25;3.20;;;;;;;1.69;96.66;98421.25;5056374;28;20048;-55
2020/12/05 01:43:18;;;;;;;6.85;3.45;;;;;;;1.69;96.27;98425.69;5059281;28;20044;-56
2020/12/05 01:45:46;;;;;;;9.77;3.67;;;;;;;1.74;96.55;98438.34;5056720;28;20040;-53
2020/12/05 01:48:16;;;;;;;4.28;2.83;;;;;;;1.83;95.63;98437.34;5061542;28;20359;-55
2020/12/05 01:50:43;;;;;;;4.78;3.28;;;;;;;1.82;95.50;98446.25;5052130;28;20325;-56
2020/12/05 01:53:10;;;;;;;5.50;3.53;;;;;;;1.84;95.67;98458.28;5053748;28;20049;-53
2020/12/05 01:55:37;;;;;;;9.63;3.35;;;;;;;1.95;96.08;98453.66;5059167;28;20052;-55
2020/12/05 01:58:06;;;;;;;6.97;3.38;;;;;;;2.03;95.37;98456.28;5055393;28;20067;-55
2020/12/05 02:00:33;;;;;;;8.48;3.17;;;;;;;2.04;95.21;98456.13;5055282;28;20417;-55
2020/12/05 02:03:00;;;;;;;4.97;3.50;;;;;;;2.03;95.37;98458.91;5065947;28;20032;-55
2020/12/05 02:05:47;;;;;;;9.20;2.80;;;;;;;1.95;95.40;98453.66;5060544;28;20037;-55
2020/12/05 02:08:15;;;;;;;5.40;3.70;;;;;;;2.00;94.70;98461.84;5058555;28;20055;-55
2020/12/05 02:10:47;;;;;;;6.15;3.22;;;;;;;1.96;95.54;98461.38;5055794;28;20047;-54
2020/12/05 02:13:19;;;;;;;7.10;3.38;;;;;;;2.04;94.98;98466.66;5057751;28;20060;-54
2020/12/05 02:15:46;;;;;;;5.22;3.05;;;;;;;2.05;95.02;98465.63;5056171;28;20052;-55
2020/12/05 02:18:14;;;;;;;7.35;3.20;;;;;;;2.10;95.02;98465.16;5056781;28;20045;-52
2020/12/05 02:20:41;;;;;;;8.88;3.65;;;;;;;2.09;95.04;98460.88;5055954;28;20036;-54
2020/12/05 02:23:12;;;;;;;9.23;4.15;;;;;;;2.06;94.50;98467.28;5057575;28;20333;-56
2020/12/05 02:25:41;;;;;;;7.03;2.90;;;;;;;2.06;94.67;98467.28;5055513;28;20048;-53
2020/12/05 02:28:08;;;;;;;6.97;2.90;;;;;;;2.05;94.26;98464.81;5061289;28;20128;-55
2020/12/05 02:30:36;;;;;;;6.25;3.17;;;;;;;2.16;94.14;98477.66;5061915;28;20044;-53
2020/12/05 02:33:04;;;;;;;5.07;2.83;;;;;;;2.02;95.09;98476.50;5056137;28;20340;-55
2020/12/05 02:35:31;;;;;;;6.78;3.42;;;;;;;2.08;95.19;98480.28;5055613;28;20068;-54
2020/12/05 02:38:05;;;;;;;5.95;3.20;;;;;;;2.03;95.14;98480.78;5057584;28;20127;-56
2020/12/05 02:40:33;;;;;;;6.70;3.30;;;;;;;2.05;94.95;98488.53;5057385;28;20048;-55
2020/12/05 02:43:01;;;;;;;6.65;3.20;;;;;;;2.20;95.48;98493.97;5052685;28;20048;-55
2020/12/05 02:45:27;;;;;;;5.70;3.72;;;;;;;2.23;95.34;98491.00;5057875;28;20056;-55
2020/12/05 02:47:55;;;;;;;8.60;3.65;;;;;;;2.28;94.69;98495.75;5059264;28;20044;-55
2020/12/05 02:50:22;;;;;;;4.80;3.15;;;;;;;2.35;94.73;98499.34;5053670;28;20452;-55
2020/12/05 02:52:49;;;;;;;6.38;3.70;;;;;;;2.33;94.42;98494.25;5054728;28;20053;-55
2020/12/05 02:55:16;;;;;;;6.07;3.28;;;;;;;2.32;94.75;98500.50;5051968;28;20048;-55
2020/12/05 02:57:43;;;;;;;5.85;3.55;;;;;;;2.35;94.67;98497.56;5052268;28;20083;-56
2020/12/05 03:00:10;;;;;;;7.47;3.47;;;;;;;2.26;95.13;98492.47;5056068;28;20045;-56
2020/12/05 03:02:37;;;;;;;6.47;3.20;;;;;;;2.24;95.40;98487.38;5056807;28;20087;-56
2020/12/05 03:05:04;;;;;;;6.85;3.88;;;;;;;2.23;95.17;98491.00;5059223;28;20049;-56
2020/12/05 03:07:34;;;;;;;7.22;3.22;;;;;;;2.19;95.69;98489.66;5053544;28;20075;-56
2020/12/05 03:10:00;;;;;;;6.00;3.85;;;;;;;2.31;96.03;98490.97;5056112;28;20072;-55
2020/12/05 03:12:28;;;;;;;7.28;4.32;;;;;;;2.29;95.74;98492.94;5054803;28;20053;-55
2020/12/05 03:14:55;;;;;;;8.23;4.28;;;;;;;2.43;95.30;98493.28;5058096;28;20040;-55
2020/12/05 03:17:22;;;;;;;7.95;4.35;;;;;;;2.46;95.73;98498.19;5057225;28;20049;-55
2020/12/05 03:19:49;;;;;;;7.75;4.53;;;;;;;2.51;95.47;98495.88;5054050;28;20052;-54
2020/12/05 03:22:16;;;;;;;9.80;4.63;;;;;;;2.44;95.53;98495.72;5056396;28;20056;-54
2020/12/05 03:24:45;;;;;;;9.73;4.25;;;;;;;2.30;96.00;98497.22;5056932;28;20067;-55
2020/12/05 03:27:12;;;;;;;9.45;4.85;;;;;;;2.27;96.06;98489.66;5058423;28;20051;-56
2020/12/05 03:29:40;;;;;;;11.13;5.35;;;;;;;2.27;95.68;98494.94;5056096;28;21779;-55
2020/12/05 03:32:11;;;;;;;8.65;4.53;;;;;;;2.30;95.82;98494.59;5055581;28;20049;-55
2020/12/05 03:34:41;;;;;;;7.85;4.50;;;;;;;2.20;95.95;98496.59;5060802;28;20558;-55
2020/12/05 03:37:09;;;;;;;7.03;4.40;;;;;;;2.29;95.83;98500.84;5056224;28;20459;-56
2020/12/05 03:39:36;;;;;;;7.65;4.82;;;;;;;2.34;96.04;98506.44;5054238;28;22570;-55
2020/12/05 03:42:03;;;;;;;8.57;4.40;;;;;;;2.25;95.77;98512.69;5054295;28;20045;-56
2020/12/05 03:44:30;;;;;;;8.50;4.30;;;;;;;2.24;96.02;98521.63;5057218;28;20364;-56
2020/12/05 03:46:58;;;;;;;9.82;5.32;;;;;;;2.18;95.73;98522.25;5053065;28;20458;-56
2020/12/05 03:49:31;;;;;;;9.90;5.00;;;;;;;2.26;95.84;98526.72;5054024;28;20053;-54
2020/12/05 03:51:58;;;;;;;9.00;4.88;;;;;;;2.25;96.45;98528.50;5052031;28;20233;-56
2020/12/05 03:54:26;;;;;;;10.48;5.75;;;;;;;2.16;96.08;98534.78;5051939;28;20064;-56
2020/12/05 03:56:53;;;;;;;9.15;5.32;;;;;;;2.12;96.03;98536.09;5055133;28;20033;-56
2020/12/05 03:59:20;;;;;;;10.82;5.97;;;;;;;2.13;96.39;98543.00;5060072;28;20051;-56
2020/12/05 04:01:47;;;;;;;10.82;5.95;;;;;;;2.23;96.65;98541.84;5050046;28;20470;-56
2020/12/05 04:04:14;;;;;;;8.18;5.03;;;;;;;2.13;96.98;98543.81;5053970;28;20445;-56
2020/12/05 04:06:42;;;;;;;9.15;4.97;;;;;;;2.15;96.54;98543.66;5050094;28;20045;-54
2020/12/05 04:09:09;;;;;;;10.70;4.75;;;;;;;2.30;96.37;98539.38;5057787;28;20040;-55
2020/12/05 04:11:38;;;;;;;7.80;5.05;;;;;;;2.33;95.87;98541.66;5055407;28;20053;-54
2020/12/05 04:14:05;;;;;;;8.90;5.40;;;;;;;2.30;95.85;98542.00;5054943;28;20067;-55
2020/12/05 04:16:32;;;;;;;8.07;4.97;;;;;;;2.26;96.24;98535.41;5050186;28;20187;-54
2020/12/05 04:18:59;;;;;;;9.02;4.80;;;;;;;2.31;96.12;98533.13;5054383;28;20254;-54
2020/12/05 04:21:26;;;;;;;11.20;6.38;;;;;;;2.31;95.69;98538.41;5053906;28;20044;-55
2020/12/05 04:23:55;;;;;;;8.40;5.32;;;;;;;2.29;96.28;98535.09;5056917;28;20068;-55
2020/12/05 04:26:22;;;;;;;8.23;5.18;;;;;;;2.32;95.88;98524.22;5058650;28;20063;-54
2020/12/05 04:28:49;;;;;;;11.38;5.80;;;;;;;2.30;95.87;98530.66;5055040;28;20052;-54
2020/12/05 04:31:16;;;;;;;11.30;6.85;;;;;;;2.24;95.90;98534.78;5051756;28;20040;-54
2020/12/05 04:33:43;;;;;;;9.27;5.32;;;;;;;2.21;96.08;98533.28;5052153;28;20048;-53
2020/12/05 04:36:10;;;;;;;11.13;5.72;;;;;;;2.10;96.33;98543.31;5049768;28;20350;-54
2020/12/05 04:38:37;;;;;;;12.30;5.90;;;;;;;2.05;96.33;98546.44;5059367;28;20048;-55
2020/12/05 04:41:05;;;;;;;11.73;5.57;;;;;;;2.03;96.21;98546.63;5055623;28;20045;-55
2020/12/05 04:43:34;;;;;;;14.55;6.45;;;;;;;1.97;96.60;98544.66;5053618;28;20056;-55
2020/12/05 04:46:01;;;;;;;14.25;6.20;;;;;;;2.06;96.15;98551.53;5055496;28;20044;-54
2020/12/05 04:48:30;;;;;;;9.80;6.03;;;;;;;2.01;95.97;98535.44;5054124;28;20045;-52
2020/12/05 04:51:00;;;;;;;13.43;7.32;;;;;;;1.97;96.26;98538.53;5055837;28;20047;-53
2020/12/05 04:53:28;;;;;;;10.90;5.53;;;;;;;1.89;96.69;98540.19;5056836;28;20045;-53
2020/12/05 04:55:58;;;;;;;11.80;5.80;;;;;;;1.84;96.35;98546.91;5052978;28;20041;-53
2020/12/05 04:58:26;;;;;;;11.40;6.22;;;;;;;1.70;96.72;98557.09;5056320;28;20428;-55
2020/12/05 05:00:55;;;;;;;11.50;7.15;;;;;;;1.75;97.11;98559.25;5055043;28;20060;-55
2020/12/05 05:03:23;;;;;;;9.18;5.72;;;;;;;1.87;97.12;98565.00;5054433;28;20495;-55
2020/12/05 05:05:55;;;;;;;11.82;7.20;;;;;;;1.88;97.65;98569.28;5053583;28;20116;-55
2020/12/05 05:08:24;;;;;;;14.05;6.95;;;;;;;1.96;98.08;98574.56;5053464;28;20043;-56
2020/12/05 05:11:06;;;;;;;11.68;6.07;;;;;;;2.01;97.52;98579.34;5046323;28;20430;-55
2020/12/05 05:13:51;;;;;;;9.88;5.57;;;;;;;2.06;97.19;98577.88;5052534;28;20041;-56
2020/12/05 05:16:18;;;;;;;11.13;5.82;;;;;;;2.26;97.22;98587.28;5058430;28;20049;-54
2020/12/05 05:18:45;;;;;;;12.70;5.85;;;;;;;2.27;97.28;98584.47;5055444;28;20056;-55
2020/12/05 05:21:33;;;;;;;10.80;6.72;;;;;;;2.31;97.04;98591.06;5055018;28;20055;-55
2020/12/05 05:24:01;;;;;;;9.40;5.97;;;;;;;2.30;96.36;98588.59;5055255;28;20467;-54
2020/12/05 05:26:29;;;;;;;13.40;5.90;;;;;;;2.34;96.24;98597.81;5051778;28;20048;-55
2020/12/05 05:28:57;;;;;;;8.95;5.93;;;;;;;2.29;96.86;98608.84;5054372;28;20045;-54
2020/12/05 05:31:29;;;;;;;9.82;5.80;;;;;;;2.26;96.50;98595.19;5053960;28;20436;-56
2020/12/05 05:33:55;;;;;;;11.02;6.10;;;;;;;2.33;96.97;98611.97;5052219;28;20052;-55
2020/12/05 05:36:24;;;;;;;8.73;5.80;;;;;;;2.39;96.16;98616.59;5057254;28;20589;-56
2020/12/05 05:38:59;;;;;;;10.15;6.65;;;;;;;2.38;96.20;98622.81;5054252;28;20041;-55
2020/12/05 05:41:26;;;;;;;9.13;5.88;;;;;;;2.31;95.68;98613.94;5056668;28;20060;-55
2020/12/05 05:44:02;;;;;;;9.68;5.55;;;;;;;2.38;96.13;98628.09;5061077;28;20036;-56
2020/12/05 05:46:29;;;;;;;;;;;;;;;2.35;96.42;98631.06;5057537;28;20052;-54
2020/12/05 05:48:57;;;;;;;11.10;5.97;;;;;;;2.33;95.53;98641.78;5056963;28;19921;-56
2020/12/05 05:51:36;;;;;;;10.43;6.50;;;;;;;2.46;95.96;98632.56;5053020;28;20053;-56
2020/12/05 05:54:19;;;;;;;10.18;5.68;;;;;;;2.40;95.00;98636.69;5040119;28;20041;-54
2020/12/05 05:57:07;;;;;;;9.98;6.07;;;;;;;2.40;94.68;98634.84;5054251;28;20044;-54
2020/12/05 05:59:36;;;;;;;8.07;5.38;;;;;;;2.39;94.80;98641.09;5052604;28;20065;-55
2020/12/05 06:02:09;;;;;;;9.75;5.47;;;;;;;2.31;94.70;98638.50;5050532;28;20429;-55
2020/12/05 06:04:37;;;;;;;11.52;5.57;;;;;;;2.15;94.94;98644.53;5059624;28;20053;-53
2020/12/05 06:07:05;;;;;;;9.48;5.20;;;;;;;2.06;94.43;98643.69;5051896;28;20056;-54
2020/12/05 06:09:43;;;;;;;9.65;5.90;;;;;;;1.93;94.73;98638.09;5055662;28;20040;-54
2020/12/05 06:12:11;;;;;;;10.95;5.30;;;;;;;1.76;94.97;98650.38;5056897;28;20132;-55
2020/12/05 06:14:42;;;;;;;14.30;5.65;;;;;;;1.76;95.28;98652.16;5055029;28;20437;-52
2020/12/05 06:17:09;;;;;;;10.30;5.68;;;;;;;1.77;95.95;98651.19;5060138;28;20041;-55
2020/12/05 06:19:39;;;;;;;8.63;5.20;;;;;;;1.77;95.55;98656.44;5057335;28;20052;-56
2020/12/05 06:22:11;;;;;;;8.15;5.10;;;;;;;1.95;95.78;98654.53;5057581;28;20056;-52
2020/12/05 06:24:48;;;;;;;11.48;5.10;;;;;;;2.08;94.98;98663.78;5058830;28;20334;-54
2020/12/05 06:27:16;;;;;;;11.18;5.55;;;;;;;2.12;95.13;98663.28;5058255;28;20044;-53
2020/12/05 06:29:44;;;;;;;10.70;5.93;;;;;;;2.06;95.05;98663.94;5060258;28;20071;-52
2020/12/05 06:32:10;;;;;;;8.68;4.80;;;;;;;2.11;95.40;98666.09;5056770;28;20440;-55
2020/12/05 06:34:42;;;;;;;7.95;4.88;;;;;;;2.18;95.14;98665.31;5058653;28;20052;-55
2020/12/05 06:37:12;;;;;;;9.43;5.50;;;;;;;2.22;94.53;98671.06;5053862;28;20344;-55
2020/12/05 06:39:39;;;;;;;8.85;4.88;;;;;;;2.28;94.60;98680.94;5060849;28;20315;-55
2020/12/05 06:42:18;;;;;;;7.57;5.05;;;;;;;2.36;93.70;98677.50;5054035;28;20048;-54
2020/12/05 06:44:47;;;;;;;6.32;4.30;;;;;;;2.38;93.66;98684.25;5056466;28;20040;-55
2020/12/05 06:47:24;;;;;;;5.28;3.85;;;;;;;2.33;93.67;98689.19;5059464;28;20040;-54
2020/12/05 06:49:55;;;;;;;7.88;4.80;;;;;;;2.38;92.90;98691.31;5056615;28;20056;-55
2020/12/05 06:52:46;;;;;;;9.50;4.20;;;;;;;2.37;92.66;98695.78;5055931;28;20040;-54
2020/12/05 06:55:15;;;;;;;8.48;4.47;;;;;;;2.46;93.21;98688.72;5055042;28;20053;-53
2020/12/05 06:57:43;;;;;;;7.20;3.97;;;;;;;2.52;92.68;98695.97;5056012;28;20456;-55
2020/12/05 07:00:31;;;;;;;6.68;4.40;;;;;;;2.49;91.88;98698.09;5057123;28;20044;-53
2020/12/05 07:03:00;;;;;;;8.48;5.30;;;;;;;2.51;92.01;98701.38;5057059;28;20043;-54
2020/12/05 07:05:34;;;;;;;8.77;4.03;;;;;;;2.52;91.86;98708.31;5054479;28;20060;-54
2020/12/05 07:08:02;;;;;;;7.70;4.13;;;;;;;2.58;91.28;98720.84;5062440;28;20048;-54
2020/12/05 07:10:50;;;;;;;6.47;3.88;;;;;;;2.51;91.70;98728.56;5054544;28;20099;-55
2020/12/05 07:13:18;;;;;;;8.32;4.50;;;;;;;2.51;91.38;98728.56;5058326;28;20045;-55
2020/12/05 07:15:46;;;;;;;7.07;4.63;;;;;;;2.51;91.06;98735.63;5055211;28;20447;-55
2020/12/05 07:18:25;;;;;;;8.70;4.32;;;;;;;2.58;91.06;98734.84;5056584;28;20048;-54
2020/12/05 07:20:53;;;;;;;8.00;4.25;;;;;;;2.56;91.70;98744.72;5058076;28;20094;-54
2020/12/05 07:23:20;;;;;;;10.00;5.15;;;;;;;2.57;90.98;98750.81;5055583;28;20274;-54
2020/12/05 07:25:47;;;;;;;8.38;4.68;;;;;;;2.56;91.12;98759.72;5057841;28;20051;-55
2020/12/05 07:28:14;;;;;;;12.68;6.20;;;;;;;2.59;90.83;98756.75;5061810;28;20356;-52
2020/12/05 07:30:41;;;;;;;10.98;6.90;;;;;;;2.62;90.94;98764.31;5056458;28;20421;-54
2020/12/05 07:33:09;;;;;;;13.82;5.63;;;;;;;2.51;90.82;98759.34;5055836;28;20040;-53
2020/12/05 07:35:36;;;;;;;9.80;5.93;;;;;;;2.61;90.76;98765.31;5056685;28;20328;-54
2020/12/05 07:38:12;;;;;;;11.40;5.45;;;;;;;2.58;91.16;98770.94;5057643;28;20036;-54
2020/12/05 07:40:39;;;;;;;8.80;5.38;;;;;;;2.54;90.36;98778.31;5054059;28;20336;-55
2020/12/05 07:43:16;;;;;;;9.55;4.85;;;;;;;2.56;90.42;98780.78;5058332;28;20048;-53
2020/12/05 07:45:43;;;;;;;10.57;4.90;;;;;;;2.55;90.78;98773.84;5058522;28;20052;-54
2020/12/05 07:48:15;;;;;;;14.05;5.80;;;;;;;2.56;90.55;98788.69;5059033;28;20028;-53
2020/12/05 07:50:42;;;;;;;16.63;5.82;;;;;;;2.58;91.31;98800.72;5044128;28;20380;-54
2020/12/05 07:53:22;;;;;;;8.70;4.53;;;;;;;2.63;90.58;98800.25;5055483;28;20049;-55
2020/12/05 07:55:49;;;;;;;7.75;4.28;;;;;;;2.60;90.57;98789.22;5051482;28;20367;-54
2020/12/05 07:58:16;;;;;;;8.02;4.15;;;;;;;2.64;90.75;98807.16;5057737;28;20052;-51
2020/12/05 08:00:43;;;;;;;7.88;4.30;;;;;;;2.69;90.18;98804.03;5060124;28;20048;-55
2020/12/05 08:03:37;;;;;;;7.97;4.82;;;;;;;2.67;90.81;98816.56;5053693;28;20052;-56
2020/12/05 08:06:10;;;;;;;9.18;4.05;;;;;;;2.77;90.72;98813.78;5052055;28;20138;-55
2020/12/05 08:08:38;;;;;;;8.27;4.00;;;;;;;2.68;90.68;98818.19;5049676;28;20049;-55
2020/12/05 08:11:05;;;;;;;6.95;4.07;;;;;;;2.62;90.26;98826.75;5053494;28;20063;-55
2020/12/05 08:13:35;;;;;;;9.48;4.63;;;;;;;2.74;90.10;98828.13;5057022;28;20059;-54
2020/12/05 08:16:04;;;;;;;11.35;4.25;;;;;;;2.74;90.59;98828.94;5052895;28;20053;-54
2020/12/05 08:18:33;;;;;;;8.15;4.82;;;;;;;2.71;90.64;98834.53;5049352;28;20044;-55
2020/12/05 08:21:01;;;;;;;10.98;4.38;;;;;;;2.71;90.57;98836.34;5052073;28;20044;-54
2020/12/05 08:23:30;;;;;;;9.27;4.10;;;;;;;2.73;90.72;98840.44;5054311;28;20443;-55
2020/12/05 08:26:00;;;;;;;7.70;3.85;;;;;;;2.71;89.87;98833.72;5048548;28;20041;-54
2020/12/05 08:28:27;;;;;;;5.25;3.63;;;;;;;2.78;89.60;98839.16;5055797;28;20448;-54
2020/12/05 08:30:55;;;;;;;7.70;4.10;;;;;;;2.74;89.65;98841.28;5051661;28;20045;-56
2020/12/05 08:33:22;;;;;;;7.55;4.30;;;;;;;2.79;89.62;98840.81;5057157;28;20455;-55
2020/12/05 08:35:51;;;;;;;9.77;5.65;;;;;;;2.84;90.02;98843.78;5054772;28;20508;-55
2020/12/05 08:38:22;;;;;;;10.07;6.30;;;;;;;2.82;89.66;98846.59;5054648;28;20360;-54
2020/12/05 08:40:59;;;;;;;10.60;6.53;;;;;;;2.86;89.77;98847.91;5056593;28;20051;-54
2020/12/05 08:43:26;;;;;;;10.82;6.95;;;;;;;2.85;89.76;98859.44;5050973;28;20317;-55
2020/12/05 08:45:53;;;;;;;10.98;6.00;;;;;;;2.89;89.43;98852.88;5054734;28;20413;-55
2020/12/05 08:48:20;;;;;;;6.40;4.50;;;;;;;2.89;89.79;98862.56;5056278;28;20123;-54
2020/12/05 08:50:47;;;;;;;7.20;4.90;;;;;;;2.86;90.33;98866.34;5051150;28;20048;-55
2020/12/05 08:53:16;;;;;;;8.32;4.25;;;;;;;2.98;89.31;98861.63;5055464;28;20360;-56
2020/12/05 08:55:47;;;;;;;7.93;3.88;;;;;;;3.08;89.53;98864.91;5064530;28;20348;-55
2020/12/05 08:58:15;;;;;;;9.73;4.53;;;;;;;3.06;89.93;98864.28;5052670;28;20353;-55
2020/12/05 09:00:42;;;;;;;7.32;4.88;;;;;;;2.88;90.22;98866.22;5052925;28;20053;-56
2020/12/05 09:03:20;;;;;;;14.82;6.25;;;;;;;3.11;89.75;98869.06;5050796;28;20040;-57
2020/12/05 09:05:48;;;;;;;9.00;3.75;;;;;;;3.17;89.32;98864.94;5048844;28;20040;-56
2020/12/05 09:08:20;;;;;;;9.07;4.15;;;;;;;3.23;89.72;98874.81;5053419;28;20444;-54
2020/12/05 09:10:49;;;;;;;8.38;4.20;;;;;;;3.15;89.65;98877.44;5053650;28;20044;-56
2020/12/05 09:13:16;;;;;;;7.38;3.70;;;;;;;3.32;89.04;98879.13;5050219;28;20463;-56
2020/12/05 09:15:57;;;;;;;7.65;4.55;;;;;;;3.50;88.49;98886.91;5059508;28;20049;-56
2020/12/05 09:18:24;;;;;;;5.97;4.22;;;;;;;3.57;88.10;98879.97;5053094;28;20053;-56
2020/12/05 09:20:52;;;;;;;9.80;4.07;;;;;;;3.58;87.61;98888.72;5057861;28;20136;-56
2020/12/05 09:23:29;;;;;;;8.75;4.40;;;;;;;3.77;87.62;98893.66;5059856;28;20358;-57
2020/12/05 09:26:01;;;;;;;7.38;3.63;;;;;;;3.70;87.43;98897.97;5054594;28;20049;-55
2020/12/05 09:28:28;;;;;;;6.20;3.60;;;;;;;3.88;86.72;98899.59;5055291;28;20294;-56
2020/12/05 09:30:55;;;;;;;8.63;4.03;;;;;;;3.98;87.19;98897.59;5055798;28;20056;-54
2020/12/05 09:33:23;;;;;;;6.00;3.20;;;;;;;4.05;86.04;98900.38;5056386;28;20045;-55
2020/12/05 09:35:49;;;;;;;5.38;3.30;;;;;;;4.34;85.62;98904.28;5057814;28;20047;-56
2020/12/05 09:38:17;;;;;;;6.75;4.00;;;;;;;4.17;86.22;98908.78;5059352;28;20362;-56
2020/12/05 09:40:44;;;;;;;7.45;3.70;;;;;;;4.07;85.74;98903.69;5057948;28;20064;-56
2020/12/05 09:43:12;;;;;;;6.85;3.60;;;;;;;4.12;85.34;98910.09;5053024;28;20049;-56
2020/12/05 09:45:39;;;;;;;5.88;3.67;;;;;;;3.92;85.46;98906.19;5056618;28;20053;-55
2020/12/05 09:48:06;;;;;;;7.75;3.42;;;;;;;3.89;85.50;98901.25;5055432;28;20095;-55
2020/12/05 09:50:33;;;;;;;8.77;3.95;;;;;;;3.98;85.85;98908.16;5053827;28;20060;-55
2020/12/05 09:53:00;;;;;;;6.32;3.50;;;;;;;3.81;85.39;98903.88;5054293;28;20056;-54
2020/12/05 09:55:28;;;;;;;6.25;3.88;;;;;;;3.76;86.38;98907.03;5060452;28;20337;-54
2020/12/05 09:57:56;;;;;;;5.40;2.80;;;;;;;3.86;86.31;98906.88;5056636;28;20360;-56
2020/12/05 10:00:23;;;;;;;7.18;3.33;;;;;;;3.74;86.12;98907.19;5059117;28;20340;-56
2020/12/05 10:02:50;;;;;;;10.02;3.80;;;;;;;3.69;86.84;98906.84;5054618;28;20750;-55
2020/12/05 10:05:17;;;;;;;10.52;3.67;;;;;;;3.78;86.38;98911.16;5058240;28;20057;-55
2020/12/05 10:07:44;;;;;;;6.50;3.22;;;;;;;3.96;86.61;98904.88;5055813;28;20406;-54
2020/12/05 10:10:11;;;;;;;6.30;3.17;;;;;;;4.07;86.05;98912.44;5057252;28;20045;-55
2020/12/05 10:12:44;;;;;;;8.77;3.33;;;;;;;4.17;84.78;98914.06;5058413;28;20388;-55
2020/12/05 10:15:13;;;;;;;10.57;3.33;;;;;;;4.03;84.63;98913.75;5056484;28;20159;-55
2020/12/05 10:17:40;;;;;;;8.85;3.25;;;;;;;4.01;84.21;98922.84;5054478;28;20045;-55
2020/12/05 10:20:07;;;;;;;6.03;2.80;;;;;;;3.98;85.02;98929.28;5053671;28;20059;-55
2020/12/05 10:22:34;;;;;;;9.38;3.17;;;;;;;3.91;85.39;98933.59;5058431;28;20103;-56
2020/12/05 10:25:01;;;;;;;7.13;3.58;;;;;;;3.95;86.10;98933.09;5059542;28;20448;-56
2020/12/05 10:27:28;;;;;;;5.85;2.90;;;;;;;3.93;85.43;98939.53;5053512;28;20573;-55
2020/12/05 10:29:55;;;;;;;9.45;3.03;;;;;;;3.88;85.48;98936.56;5058505;28;20044;-53
2020/12/05 10:32:23;;;;;;;6.10;3.28;;;;;;;4.03;84.82;98937.53;5054144;28;20053;-56
2020/12/05 10:34:50;;;;;;;6.25;3.13;;;;;;;4.20;83.69;98927.78;5058956;28;20075;-54
2020/12/05 10:37:17;;;;;;;4.88;2.90;;;;;;;4.23;83.88;98937.19;5059634;28;20484;-56
2020/12/05 10:39:46;;;;;;;9.45;3.30;;;;;;;4.38;84.22;98945.22;5051776;28;20142;-56
2020/12/05 10:42:13;;;;;;;4.82;3.20;;;;;;;4.36;82.91;98937.47;5054688;28;20049;-56
2020/12/05 10:44:40;;;;;;;6.47;3.40;;;;;;;4.28;83.58;98933.03;5056246;28;20044;-56
2020/12/05 10:47:07;;;;;;;6.60;3.15;;;;;;;4.56;82.12;98932.63;5057423;28;20056;-56
2020/12/05 10:49:35;;;;;;;5.40;3.13;;;;;;;4.71;81.99;98931.94;5054390;28;20131;-55
2020/12/05 10:52:01;;;;;;;5.38;2.83;;;;;;;4.71;81.41;98924.81;5055802;28;20557;-56
2020/12/05 10:54:29;;;;;;;7.40;3.15;;;;;;;4.89;80.26;98923.75;5053899;28;20373;-56
2020/12/05 10:56:57;;;;;;;6.95;2.67;;;;;;;4.80;80.12;98925.59;5053564;28;20040;-55
2020/12/05 10:59:24;;;;;;;7.38;3.33;;;;;;;4.28;81.04;98921.63;5056376;28;20071;-55
2020/12/05 11:01:50;;;;;;;8.95;4.10;;;;;;;4.43;80.98;98919.13;5055381;28;20057;-55
2020/12/05 11:04:17;;;;;;;6.20;2.72;;;;;;;4.26;81.79;98918.34;5052425;28;20057;-56
2020/12/05 11:06:45;;;;;;;4.90;3.17;;;;;;;4.34;81.45;98926.25;5049017;28;20437;-56
2020/12/05 11:09:12;;;;;;;4.38;2.63;;;;;;;4.43;81.02;98930.53;5057320;28;20048;-56
2020/12/05 11:11:39;;;;;;;4.28;2.55;;;;;;;4.36;81.57;98934.03;5055839;28;20052;-56
2020/12/05 11:14:08;;;;;;;3.80;2.45;;;;;;;4.22;81.78;98933.69;5052172;28;20052;-56
2020/12/05 11:16:35;;;;;;;3.95;2.70;;;;;;;4.12;81.84;98933.88;5058316;28;20075;-56
2020/12/05 11:19:02;;;;;;;4.50;2.53;;;;;;;4.27;82.04;98930.56;5052571;28;20064;-55
2020/12/05 11:21:29;;;;;;;4.93;2.40;;;;;;;4.42;81.38;98947.41;5055715;28;20416;-55
2020/12/05 11:23:57;;;;;;;3.70;2.45;;;;;;;4.47;81.31;98945.03;5054497;28;20228;-56
2020/12/05 11:26:24;;;;;;;9.00;3.70;;;;;;;4.76;80.54;98948.09;5054362;28;20052;-56
2020/12/05 11:28:51;;;;;;;4.40;2.67;;;;;;;5.10;80.04;98939.88;5054949;28;20052;-56
2020/12/05 11:31:19;;;;;;;4.35;2.88;;;;;;;4.88;78.63;98944.09;5034048;28;20045;-56
2020/12/05 11:33:46;;;;;;;8.27;3.65;;;;;;;5.04;79.36;98948.47;5058091;28;20063;-56
2020/12/05 11:36:13;;;;;;;6.05;2.70;;;;;;;4.91;79.52;98945.56;5050479;28;20055;-56
2020/12/05 11:38:40;;;;;;;5.25;2.75;;;;;;;4.87;78.72;98949.56;5055763;28;20456;-56
2020/12/05 11:41:08;;;;;;;6.28;2.75;;;;;;;4.98;78.49;98947.34;5052008;28;20049;-55
2020/12/05 11:43:35;;;;;;;3.35;2.25;;;;;;;4.98;78.54;98955.28;5048996;28;20052;-55
2020/12/05 11:46:02;;;;;;;4.47;3.65;;;;;;;5.09;78.53;98956.72;5053320;28;20060;-56
2020/12/05 11:48:29;;;;;;;5.63;2.55;;;;;;;4.82;78.77;98948.25;5051968;28;20109;-55